»·PEaware :: UAL280 KRNO-KSFO

UAL280 :: KRNO-KSFO

FLIGHT INFORMATION

Flight Status: Arrived
Operator:
United Airlines
More flights by this operator :: More flights under this callsign
Pilot: Ion I. (24133)
Aircraft: BOEING 737-800
(B738)
More flights by this aircraft type
Origin: KRNO Reno/Tahoe Intl
United States
Destination: KSFO San Francisco Intl
United States
More flights between these airports :: More routes between these airports
Route: ZEFFR6 MRLET LEGGS BDEGA3
File this flight plan on PilotEdge
Remarks:
Altitude:
(Current/Filed)
28,000ft
Speed:
(Current/Filed)
460kts
Departed: 16-Nov-20 09:04 AM
Arrived: 16-Nov-20 09:53 AM
Distance/Time
Traveled:
167nm/0:49
Distance/Time
To Go:
Arrived

Flight Plot

Page will automatically refresh every two minutes.

Flight plan parsing failed; only flown route is shown


Map Options




Map Legend


Flown Route
Filed Route
Departure Airport
Arrival Airport
Navaid (VOR, NDB)
Fix

Horizontal Profiles

Position Reports

Time Latitude Longitude Heading Altitude Ground
Speed
16-Nov-20 08:40 39.506523 -119.774236 352 4423ft 0kts
16-Nov-20 08:41 39.506523 -119.774236 352 4423ft 0kts
16-Nov-20 08:42 39.506523 -119.774236 352 4423ft 0kts
16-Nov-20 08:43 39.506523 -119.774236 352 4422ft 0kts
16-Nov-20 08:44 39.506523 -119.774236 352 4423ft 0kts
16-Nov-20 08:45 39.506523 -119.774236 352 4423ft 0kts
16-Nov-20 08:46 39.506523 -119.774236 352 4423ft 0kts
16-Nov-20 08:46 39.506523 -119.774236 352 4423ft 0kts
16-Nov-20 08:48 39.506523 -119.774236 352 4423ft 0kts
16-Nov-20 08:48 39.506523 -119.774236 352 4423ft 0kts
16-Nov-20 08:50 39.506523 -119.774236 352 4423ft 0kts
16-Nov-20 08:51 39.506523 -119.774236 352 4423ft 0kts
16-Nov-20 08:51 39.506523 -119.774236 352 4423ft 0kts
16-Nov-20 08:52 39.506523 -119.774236 352 4423ft 0kts
16-Nov-20 08:53 39.506523 -119.774236 352 4423ft 0kts
16-Nov-20 08:54 39.506523 -119.774236 352 4423ft 0kts
16-Nov-20 08:55 39.506032 -119.774150 352 4423ft 2kts
16-Nov-20 08:56 39.505717 -119.774095 352 4423ft 0kts
16-Nov-20 08:57 39.505717 -119.774095 352 4423ft 0kts
16-Nov-20 08:58 39.505717 -119.774095 352 4423ft 0kts
16-Nov-20 08:59 39.505892 -119.773305 90 4423ft 1kts
16-Nov-20 09:00 39.507089 -119.771482 1 4423ft 12kts
16-Nov-20 09:01 39.512132 -119.771477 359 4423ft 15kts
16-Nov-20 09:02 39.513759 -119.769845 91 4423ft 8kts
16-Nov-20 09:03 39.498245 -119.769256 180 4423ft 148kts
16-Nov-20 09:04 39.447118 -119.769143 180 6407ft 208kts
16-Nov-20 09:05 39.378130 -119.769592 179 8358ft 278kts
16-Nov-20 09:06 39.300310 -119.773685 192 11724ft 286kts
16-Nov-20 09:07 39.212761 -119.800345 197 13030ft 358kts
16-Nov-20 09:08 39.133141 -119.869205 249 15668ft 356kts
16-Nov-20 09:09 39.149585 -119.995790 286 17908ft 375kts
16-Nov-20 09:10 39.177170 -120.127206 279 20041ft 384kts
16-Nov-20 09:11 39.200207 -120.263391 279 21966ft 395kts
16-Nov-20 09:12 39.224092 -120.403180 279 23684ft 404kts
16-Nov-20 09:13 39.247815 -120.546539 278 25311ft 411kts
16-Nov-20 09:14 39.271726 -120.692466 278 27006ft 413kts
16-Nov-20 09:15 39.295495 -120.837208 277 28323ft 414kts
16-Nov-20 09:16 39.318560 -120.982132 277 28322ft 409kts
16-Nov-20 09:17 39.314597 -121.122682 237 28285ft 400kts
16-Nov-20 09:18 39.245155 -121.235573 231 28242ft 402kts
16-Nov-20 09:19 39.172904 -121.346042 231 28226ft 402kts
16-Nov-20 09:20 39.100762 -121.456144 231 28220ft 402kts
16-Nov-20 09:21 39.029465 -121.565312 230 28234ft 402kts
16-Nov-20 09:22 38.957282 -121.674863 230 28239ft 403kts
16-Nov-20 09:23 38.884686 -121.784535 230 28240ft 403kts
16-Nov-20 09:24 38.811895 -121.894146 230 28240ft 404kts
16-Nov-20 09:25 38.738913 -122.003644 230 28234ft 404kts
16-Nov-20 09:26 38.667279 -122.110756 230 27514ft 383kts
16-Nov-20 09:27 38.599005 -122.213091 229 26511ft 375kts
16-Nov-20 09:28 38.531210 -122.313516 229 25511ft 370kts
16-Nov-20 09:29 38.464492 -122.412128 229 24512ft 365kts
16-Nov-20 09:30 38.399460 -122.509216 230 23508ft 354kts
16-Nov-20 09:31 38.335389 -122.604124 230 22507ft 351kts
16-Nov-20 09:32 38.272655 -122.696664 230 21196ft 342kts
16-Nov-20 09:33 38.199302 -122.767297 188 19376ft 349kts
16-Nov-20 09:34 38.103942 -122.731483 171 17440ft 357kts
16-Nov-20 09:35 38.008216 -122.704595 172 15711ft 348kts
16-Nov-20 09:36 37.914655 -122.676654 165 14002ft 344kts
16-Nov-20 09:37 37.836115 -122.606514 143 12299ft 348kts
16-Nov-20 09:38 37.763533 -122.529206 143 11130ft 325kts
16-Nov-20 09:39 37.704652 -122.466685 143 10992ft 295kts
16-Nov-20 09:40 37.641344 -122.399477 143 10997ft 299kts
16-Nov-20 09:41 37.574866 -122.339582 155 10997ft 285kts
16-Nov-20 09:42 37.505829 -122.295274 156 10871ft 266kts
16-Nov-20 09:43 37.441907 -122.254482 150 9529ft 255kts
16-Nov-20 09:44 37.416457 -122.174700 103 8310ft 242kts
16-Nov-20 09:45 37.424029 -122.096734 39 6857ft 242kts
16-Nov-20 09:46 37.483836 -122.073920 331 5436ft 235kts
16-Nov-20 09:47 37.519046 -122.137106 295 4536ft 224kts
16-Nov-20 09:48 37.546925 -122.205343 297 2938ft 208kts
16-Nov-20 09:49 37.571594 -122.262837 300 1733ft 171kts
16-Nov-20 09:50 37.592962 -122.313593 300 820ft 162kts
16-Nov-20 09:51 37.614507 -122.364746 294 30ft 156kts
16-Nov-20 09:52 37.621610 -122.382929 225 21ft 11kts
16-Nov-20 09:53 37.620622 -122.384119 291 21ft 6kts
16-Nov-20 09:54 37.619376 -122.385430 160 21ft 7kts
16-Nov-20 09:55 37.618841 -122.385200 160 21ft 0kts
16-Nov-20 09:56 37.618817 -122.385189 160 21ft 0kts
16-Nov-20 09:57 37.618817 -122.385189 160 21ft 0kts

Navigation Log

Ident Type
Flight plan parsing failed, navigation log unavailable